createdAt,value
2017-08-04T00:02:05.712Z,18.57
2017-08-04T00:04:33.761Z,16.73
2017-08-04T00:07:01.996Z,15.70
2017-08-04T00:09:30.108Z,17.50
2017-08-04T00:11:58.175Z,18.00
2017-08-04T00:14:26.452Z,17.27
2017-08-04T00:16:54.512Z,16.80
2017-08-04T00:19:22.580Z,16.40
2017-08-04T00:21:50.731Z,16.83
2017-08-04T00:24:18.812Z,15.40
2017-08-04T00:26:46.886Z,15.70
2017-08-04T00:29:15.008Z,17.73
2017-08-04T00:31:43.073Z,16.10
2017-08-04T00:34:11.186Z,14.70
2017-08-04T00:36:39.412Z,15.73
2017-08-04T00:39:07.452Z,16.50
2017-08-04T00:41:35.481Z,16.80
2017-08-04T00:44:03.636Z,16.30
2017-08-04T00:46:31.667Z,13.87
2017-08-04T00:48:59.721Z,14.80
2017-08-04T00:51:27.916Z,14.77
2017-08-04T00:53:55.982Z,14.73
2017-08-04T00:56:24.036Z,12.27
2017-08-04T00:58:52.198Z,13.20
2017-08-04T01:01:20.233Z,13.20
2017-08-04T01:03:48.426Z,12.73
2017-08-04T01:06:16.609Z,13.67
2017-08-04T01:08:44.601Z,14.03
2017-08-04T01:11:12.666Z,14.03
2017-08-04T01:13:40.902Z,12.93
2017-08-04T01:16:09.001Z,14.27
2017-08-04T01:18:37.076Z,13.63
2017-08-04T01:21:05.258Z,12.80
2017-08-04T01:23:33.336Z,13.70
2017-08-04T01:26:01.408Z,14.90
2017-08-04T01:28:29.592Z,13.17
2017-08-04T01:30:57.641Z,13.43
2017-08-04T01:33:25.746Z,14.93
2017-08-04T01:35:53.970Z,14.27
2017-08-04T01:38:22.034Z,13.77
2017-08-04T01:40:50.118Z,14.20
2017-08-04T01:43:18.335Z,14.87
2017-08-04T01:45:46.385Z,14.13
2017-08-04T01:48:14.435Z,15.30
2017-08-04T01:50:42.622Z,16.90
2017-08-04T01:53:10.737Z,16.40
2017-08-04T01:55:38.890Z,17.20
2017-08-04T01:58:07.148Z,16.80
2017-08-04T02:00:35.225Z,20.47
2017-08-04T02:03:03.320Z,18.57
2017-08-04T02:05:31.685Z,19.97
2017-08-04T02:07:59.908Z,21.47
2017-08-04T02:10:27.946Z,19.80
2017-08-04T02:12:56.210Z,21.17
2017-08-04T02:15:24.300Z,19.17
2017-08-04T02:17:52.350Z,19.33
2017-08-04T02:20:20.592Z,19.90
2017-08-04T02:22:48.761Z,20.40
2017-08-04T02:25:16.812Z,21.43
2017-08-04T02:27:45.026Z,20.70
2017-08-04T02:30:13.089Z,19.07
2017-08-04T02:32:41.164Z,19.20
2017-08-04T02:35:09.331Z,20.87
2017-08-04T02:37:37.372Z,20.17
2017-08-04T02:40:05.466Z,18.97
2017-08-04T02:42:33.665Z,19.70
2017-08-04T02:45:01.721Z,20.37
2017-08-04T02:47:29.792Z,20.87
2017-08-04T02:49:57.959Z,21.20
2017-08-04T02:52:26.040Z,22.23
2017-08-04T02:54:54.121Z,22.27
2017-08-04T02:57:23.147Z,25.03
2017-08-04T02:59:51.224Z,23.10
2017-08-04T03:02:19.230Z,23.77
2017-08-04T03:04:47.378Z,27.60
2017-08-04T03:07:15.613Z,23.37
2017-08-04T03:09:43.650Z,21.13
2017-08-04T03:12:11.762Z,23.10
2017-08-04T03:14:39.840Z,26.10
2017-08-04T03:17:07.946Z,24.37
2017-08-04T03:19:36.162Z,24.63
2017-08-04T03:22:04.215Z,24.67
2017-08-04T03:24:32.255Z,26.30
2017-08-04T03:27:00.402Z,27.27
2017-08-04T03:29:28.448Z,26.60
2017-08-04T03:31:56.488Z,26.83
2017-08-04T03:34:24.645Z,29.47
2017-08-04T03:36:52.681Z,27.77
2017-08-04T03:39:20.700Z,29.63
2017-08-04T03:41:48.826Z,31.30
2017-08-04T03:44:16.886Z,33.70
2017-08-04T03:46:44.959Z,32.27
2017-08-04T03:49:13.133Z,29.77
2017-08-04T03:51:41.219Z,34.93
2017-08-04T03:54:09.326Z,31.60
2017-08-04T03:56:37.563Z,32.53
2017-08-04T03:59:05.625Z,31.97
2017-08-04T04:01:33.746Z,31.67
2017-08-04T04:04:01.966Z,33.70
2017-08-04T04:06:30.052Z,31.23
2017-08-04T04:08:58.396Z,31.10
2017-08-04T04:11:26.613Z,31.20
2017-08-04T04:13:54.689Z,33.63
2017-08-04T04:16:22.804Z,33.03
2017-08-04T04:18:51.145Z,33.23
2017-08-04T04:21:19.265Z,33.97
2017-08-04T04:23:47.324Z,34.47
2017-08-04T04:26:15.518Z,37.40
2017-08-04T04:28:43.622Z,41.33
2017-08-04T04:31:11.670Z,39.40
2017-08-04T04:33:39.794Z,39.10
2017-08-04T04:36:07.876Z,37.60
2017-08-04T04:38:35.897Z,42.87
2017-08-04T04:41:04.098Z,40.20
2017-08-04T04:43:32.106Z,38.67
2017-08-04T04:46:00.240Z,39.97
2017-08-04T04:48:29.250Z,38.43
2017-08-04T04:50:57.304Z,36.10
2017-08-04T04:53:25.338Z,36.97
2017-08-04T04:55:53.506Z,38.07
2017-08-04T04:58:21.600Z,36.97
2017-08-04T05:00:49.673Z,34.13
2017-08-04T05:03:17.858Z,36.97
2017-08-04T05:05:45.894Z,37.22
2017-08-04T05:08:13.962Z,32.97
2017-08-04T05:10:42.284Z,33.30
2017-08-04T05:13:10.340Z,33.30
2017-08-04T05:15:38.430Z,33.92
2017-08-04T05:18:06.591Z,37.97
2017-08-04T05:20:34.729Z,34.67
2017-08-04T05:23:02.858Z,34.55
2017-08-04T05:25:31.062Z,35.50
2017-08-04T05:27:59.102Z,35.38
2017-08-04T05:30:27.203Z,32.58
2017-08-04T05:32:55.382Z,35.05
2017-08-04T05:35:23.422Z,34.72
2017-08-04T05:37:51.454Z,32.45
2017-08-04T05:40:19.646Z,32.42
2017-08-04T05:42:47.700Z,31.33
2017-08-04T05:45:15.776Z,32.70
2017-08-04T05:47:43.922Z,34.25
2017-08-04T05:50:11.998Z,32.83
2017-08-04T05:52:40.134Z,31.33
2017-08-04T05:55:08.314Z,32.13
2017-08-04T05:57:36.426Z,32.20
2017-08-04T06:00:04.737Z,33.47
2017-08-04T06:02:32.965Z,31.70
2017-08-04T06:05:01.045Z,32.75
2017-08-04T06:07:29.108Z,33.20
2017-08-04T06:09:57.344Z,32.17
2017-08-04T06:12:25.522Z,31.48
2017-08-04T06:14:53.634Z,34.58
2017-08-04T06:17:21.858Z,34.38
2017-08-04T06:19:49.976Z,33.47
2017-08-04T06:22:18.023Z,32.88
2017-08-04T06:24:46.232Z,33.33
2017-08-04T06:27:14.418Z,31.92
2017-08-04T06:29:42.617Z,30.42
2017-08-04T06:32:10.832Z,32.45
2017-08-04T06:34:38.946Z,32.20
2017-08-04T06:37:07.057Z,33.38
2017-08-04T06:39:35.249Z,30.55
2017-08-04T06:42:03.400Z,27.15
2017-08-04T06:44:31.436Z,30.10
2017-08-04T06:46:59.571Z,29.50
2017-08-04T06:49:38.978Z,29.27
2017-08-04T06:52:18.756Z,28.65
2017-08-04T06:54:58.181Z,25.50
2017-08-04T06:57:27.289Z,24.58
2017-08-04T06:59:55.331Z,24.40
2017-08-04T07:02:23.409Z,25.83
2017-08-04T07:04:51.620Z,23.12
2017-08-04T07:07:19.670Z,23.50
2017-08-04T07:09:47.783Z,24.90
2017-08-04T07:12:15.987Z,25.25
2017-08-04T07:14:44.186Z,24.50
2017-08-04T07:17:12.238Z,25.65
2017-08-04T07:19:40.424Z,23.50
2017-08-04T07:22:08.474Z,26.15
2017-08-04T07:24:36.518Z,24.87
2017-08-04T07:27:04.726Z,25.55
2017-08-04T07:29:32.772Z,26.33
2017-08-04T07:32:00.876Z,24.48
2017-08-04T07:34:29.065Z,22.05
2017-08-04T07:36:57.192Z,23.60
2017-08-04T07:39:25.277Z,20.40
2017-08-04T07:41:53.485Z,22.62
2017-08-04T07:44:21.568Z,19.62
2017-08-04T07:46:49.594Z,18.98
2017-08-04T07:49:17.848Z,20.52
2017-08-04T07:51:45.946Z,19.17
2017-08-04T07:54:13.986Z,19.20
2017-08-04T07:56:42.201Z,18.02
2017-08-04T07:59:10.227Z,18.33
2017-08-04T08:01:38.310Z,17.40
2017-08-04T08:04:06.430Z,19.93
2017-08-04T08:06:34.454Z,17.95
2017-08-04T08:09:02.574Z,18.25
2017-08-04T08:11:30.771Z,20.20
2017-08-04T08:13:58.824Z,18.55
2017-08-04T08:16:27.076Z,17.60
2017-08-04T08:18:55.254Z,20.75
2017-08-04T08:21:23.269Z,19.12
2017-08-04T08:23:51.327Z,18.90
2017-08-04T08:26:19.574Z,17.60
2017-08-04T08:28:47.704Z,18.97
2017-08-04T08:31:15.818Z,19.17
2017-08-04T08:33:43.984Z,19.53
2017-08-04T08:36:12.098Z,16.90
2017-08-04T08:38:40.158Z,16.92
2017-08-04T08:41:08.341Z,16.87
2017-08-04T08:43:36.398Z,16.08
2017-08-04T08:46:04.599Z,18.00
2017-08-04T08:48:32.776Z,18.83
2017-08-04T08:51:00.804Z,17.63
2017-08-04T08:53:28.887Z,17.95
2017-08-04T08:55:57.073Z,17.67
2017-08-04T08:58:25.176Z,18.17
2017-08-04T09:00:53.237Z,16.50
2017-08-04T09:03:21.509Z,16.63
2017-08-04T09:05:49.566Z,15.85
2017-08-04T09:08:17.637Z,17.07
2017-08-04T09:10:45.988Z,16.70
2017-08-04T09:13:14.065Z,16.40
2017-08-04T09:15:42.125Z,16.13
2017-08-04T09:18:10.394Z,15.33
2017-08-04T09:20:38.439Z,17.30
2017-08-04T09:23:06.454Z,15.63
2017-08-04T09:25:34.614Z,16.20
2017-08-04T09:28:02.727Z,17.13
2017-08-04T09:30:30.822Z,15.87
2017-08-04T09:32:59.010Z,17.10
2017-08-04T09:35:27.113Z,15.68
2017-08-04T09:37:55.201Z,14.00
2017-08-04T09:40:23.357Z,15.00
2017-08-04T09:42:51.362Z,14.80
2017-08-04T09:45:19.434Z,13.33
2017-08-04T09:47:47.652Z,14.47
2017-08-04T09:50:16.473Z,14.23
2017-08-04T09:52:44.529Z,14.27
2017-08-04T09:55:12.682Z,15.00
2017-08-04T09:57:40.682Z,14.27
2017-08-04T10:00:08.745Z,13.50
2017-08-04T10:02:36.912Z,13.43
2017-08-04T10:05:04.920Z,12.63
2017-08-04T10:07:32.988Z,13.53
2017-08-04T10:10:01.130Z,14.90
2017-08-04T10:12:29.198Z,13.47
2017-08-04T10:14:57.251Z,13.27
2017-08-04T10:17:25.549Z,13.00
2017-08-04T10:19:53.686Z,13.33
2017-08-04T10:22:21.753Z,12.50
2017-08-04T10:24:49.911Z,13.60
2017-08-04T10:27:17.949Z,14.00
2017-08-04T10:29:46.004Z,13.33
2017-08-04T10:32:14.190Z,14.73
2017-08-04T10:34:42.286Z,14.03
2017-08-04T10:37:10.308Z,13.57
2017-08-04T10:39:38.458Z,12.53
2017-08-04T10:42:06.486Z,11.23
2017-08-04T10:44:34.608Z,12.30
2017-08-04T10:47:02.747Z,12.40
2017-08-04T10:49:30.800Z,12.03
2017-08-04T10:51:58.895Z,11.70
2017-08-04T10:54:27.085Z,10.83
2017-08-04T10:56:55.145Z,11.37
2017-08-04T10:59:23.178Z,12.03
2017-08-04T11:01:51.362Z,11.30
2017-08-04T11:04:19.417Z,10.40
2017-08-04T11:06:47.509Z,11.20
2017-08-04T11:09:15.684Z,11.03
2017-08-04T11:11:43.717Z,12.23
2017-08-04T11:14:11.788Z,11.73
2017-08-04T11:16:39.972Z,11.40
2017-08-04T11:19:08.927Z,10.67
2017-08-04T11:21:37.105Z,11.37
2017-08-04T11:24:05.365Z,10.73
2017-08-04T11:26:33.523Z,11.73
2017-08-04T11:29:01.586Z,11.50
2017-08-04T11:31:29.774Z,10.10
2017-08-04T11:33:57.846Z,12.07
2017-08-04T11:36:25.940Z,11.00
2017-08-04T11:38:54.134Z,10.50
2017-08-04T11:41:22.143Z,9.87
2017-08-04T11:43:50.199Z,9.30
2017-08-04T11:46:18.372Z,10.93
2017-08-04T11:48:46.605Z,10.53
2017-08-04T11:51:14.720Z,10.77
2017-08-04T11:53:42.881Z,10.30
2017-08-04T11:56:11.806Z,10.93
2017-08-04T11:58:39.885Z,10.33
2017-08-04T12:01:08.070Z,11.43
2017-08-04T12:03:36.098Z,11.53
2017-08-04T12:06:04.114Z,9.73
2017-08-04T12:11:06.129Z,9.57
2017-08-04T12:13:34.174Z,9.27
2017-08-04T12:16:02.215Z,11.13
2017-08-04T12:18:30.514Z,10.40
2017-08-04T12:20:58.532Z,9.20
2017-08-04T12:23:26.796Z,9.63
2017-08-04T12:25:55.060Z,9.17
2017-08-04T12:28:24.770Z,9.73
2017-08-04T12:30:52.854Z,9.43
2017-08-04T12:33:21.259Z,8.03
2017-08-04T12:35:49.332Z,9.33
2017-08-04T12:38:17.383Z,8.57
2017-08-04T12:40:45.666Z,9.33
2017-08-04T12:43:13.694Z,8.83
2017-08-04T12:45:41.714Z,8.50
2017-08-04T12:48:09.992Z,8.00
2017-08-04T12:50:38.037Z,8.40
2017-08-04T12:53:06.098Z,7.70
2017-08-04T12:55:34.420Z,7.80
2017-08-04T12:58:03.274Z,8.77
2017-08-04T13:00:31.312Z,8.50
2017-08-04T13:03:00.248Z,8.30
2017-08-04T13:05:28.294Z,7.73
2017-08-04T13:07:56.364Z,8.07
2017-08-04T13:10:24.578Z,8.73
2017-08-04T13:12:52.630Z,8.50
2017-08-04T13:15:21.496Z,7.80
2017-08-04T13:17:49.669Z,7.43
2017-08-04T13:20:18.667Z,7.40
2017-08-04T13:22:46.747Z,8.13
2017-08-04T13:25:15.098Z,7.33
2017-08-04T13:27:43.173Z,7.00
2017-08-04T13:30:11.228Z,8.23
2017-08-04T13:32:39.412Z,8.77
2017-08-04T13:35:07.463Z,7.03
2017-08-04T13:37:35.484Z,7.57
2017-08-04T13:40:03.692Z,8.33
2017-08-04T13:42:31.752Z,7.47
2017-08-04T13:44:59.840Z,7.37
2017-08-04T13:47:28.078Z,8.60
2017-08-04T13:49:56.180Z,8.20
2017-08-04T13:52:24.317Z,8.00
2017-08-04T13:54:52.448Z,8.37
2017-08-04T13:57:20.532Z,7.83
2017-08-04T13:59:48.589Z,7.47
2017-08-04T14:02:16.776Z,7.00
2017-08-04T14:04:44.849Z,7.40
2017-08-04T14:07:12.907Z,7.00
2017-08-04T14:09:41.155Z,8.10
2017-08-04T14:12:09.175Z,7.27
2017-08-04T14:14:37.295Z,8.10
2017-08-04T14:17:05.445Z,8.40
2017-08-04T14:19:33.510Z,7.77
2017-08-04T14:22:01.526Z,7.97
2017-08-04T14:24:29.677Z,8.30
2017-08-04T14:26:57.735Z,7.83
2017-08-04T14:29:25.750Z,8.33
2017-08-04T14:31:53.947Z,7.93
2017-08-04T14:34:22.008Z,6.60
2017-08-04T14:36:50.084Z,7.90
2017-08-04T14:39:18.321Z,7.87
2017-08-04T14:41:46.356Z,7.73
2017-08-04T14:44:14.454Z,7.23
2017-08-04T14:46:42.680Z,8.00
2017-08-04T14:49:10.768Z,7.80
2017-08-04T14:51:38.780Z,7.50
2017-08-04T14:54:06.952Z,7.80
2017-08-04T14:56:35.023Z,8.13
2017-08-04T14:59:03.092Z,9.07
2017-08-04T15:01:31.238Z,9.50
2017-08-04T15:03:59.260Z,8.77
2017-08-04T15:06:27.266Z,8.03
2017-08-04T15:08:55.559Z,8.50
2017-08-04T15:11:23.673Z,9.23
2017-08-04T15:13:51.711Z,9.33
2017-08-04T15:16:19.916Z,9.57
2017-08-04T15:18:47.980Z,9.20
2017-08-04T15:21:16.023Z,8.70
2017-08-04T15:23:44.201Z,9.10
2017-08-04T15:26:12.234Z,8.60
2017-08-04T15:28:40.356Z,9.43
2017-08-04T15:31:08.558Z,8.60
2017-08-04T15:33:36.692Z,9.20
2017-08-04T15:36:04.716Z,10.27
2017-08-04T15:38:32.930Z,8.80
2017-08-04T15:41:00.998Z,8.87
2017-08-04T15:43:29.111Z,8.43
2017-08-04T15:45:57.243Z,8.60
2017-08-04T15:48:25.324Z,9.70
2017-08-04T15:50:53.407Z,9.10
2017-08-04T15:53:21.602Z,10.03
2017-08-04T15:55:49.684Z,9.70
2017-08-04T15:58:17.700Z,9.50
2017-08-04T16:00:45.924Z,10.10
2017-08-04T16:03:14.023Z,9.47
2017-08-04T16:05:42.070Z,10.40
2017-08-04T16:08:10.261Z,9.53
2017-08-04T16:10:38.324Z,11.20
2017-08-04T16:13:06.371Z,9.30
2017-08-04T16:15:34.554Z,9.07
2017-08-04T16:18:02.586Z,9.43
2017-08-04T16:20:30.666Z,9.97
2017-08-04T16:22:58.907Z,9.90
2017-08-04T16:25:27.006Z,9.67
2017-08-04T16:27:55.050Z,10.87
2017-08-04T16:30:23.232Z,11.50
2017-08-04T16:32:51.302Z,10.97
2017-08-04T16:35:19.329Z,11.60
2017-08-04T16:37:47.549Z,13.33
2017-08-04T16:40:16.535Z,13.97
2017-08-04T16:42:44.584Z,14.13
2017-08-04T16:45:12.779Z,15.17
2017-08-04T16:47:40.842Z,14.87
2017-08-04T16:50:08.883Z,14.60
2017-08-04T16:52:37.066Z,15.03
2017-08-04T16:55:05.089Z,14.87
2017-08-04T16:57:33.136Z,16.27
2017-08-04T17:00:01.382Z,16.47
2017-08-04T17:02:29.480Z,15.97
2017-08-04T17:04:57.601Z,16.77
2017-08-04T17:07:25.739Z,17.87
2017-08-04T17:09:53.801Z,18.20
2017-08-04T17:12:21.853Z,17.90
2017-08-04T17:14:50.081Z,19.30
2017-08-04T17:17:18.164Z,19.13
2017-08-04T17:19:46.235Z,19.97
2017-08-04T17:22:14.443Z,18.60
2017-08-04T17:24:42.552Z,18.97
2017-08-04T17:27:10.630Z,18.50
2017-08-04T17:29:38.828Z,18.60
2017-08-04T17:32:06.884Z,19.10
2017-08-04T17:34:34.917Z,19.10
2017-08-04T17:37:03.139Z,20.70
2017-08-04T17:39:31.209Z,20.40
2017-08-04T17:41:59.290Z,20.00
2017-08-04T17:44:27.466Z,19.93
2017-08-04T17:46:55.493Z,19.67
2017-08-04T17:49:23.534Z,20.03
2017-08-04T17:51:51.764Z,20.63
2017-08-04T17:54:19.829Z,21.40
2017-08-04T17:56:47.870Z,21.40
2017-08-04T17:59:16.042Z,22.20
2017-08-04T18:01:44.121Z,23.90
2017-08-04T18:04:12.181Z,22.40
2017-08-04T18:06:40.342Z,22.30
2017-08-04T18:09:08.350Z,24.37
2017-08-04T18:11:36.393Z,26.20
2017-08-04T18:14:04.560Z,24.87
2017-08-04T18:16:32.566Z,26.87
2017-08-04T18:19:00.633Z,28.77
2017-08-04T18:21:28.944Z,26.47
2017-08-04T18:23:57.006Z,28.37
2017-08-04T18:26:25.040Z,27.00
2017-08-04T18:28:53.178Z,30.87
2017-08-04T18:31:21.210Z,31.13
2017-08-04T18:33:49.282Z,33.07
2017-08-04T18:36:17.424Z,31.00
2017-08-04T18:38:45.516Z,32.77
2017-08-04T18:41:13.594Z,35.70
2017-08-04T18:43:41.776Z,35.97
2017-08-04T18:46:09.782Z,36.23
2017-08-04T18:48:37.870Z,34.73
2017-08-04T18:51:06.064Z,37.57
2017-08-04T18:53:34.180Z,36.60
2017-08-04T18:56:02.332Z,37.70
2017-08-04T18:58:30.484Z,37.90
2017-08-04T19:00:58.493Z,38.87
2017-08-04T19:03:26.577Z,38.37
2017-08-04T19:05:54.777Z,41.00
2017-08-04T19:08:22.843Z,36.90
2017-08-04T19:10:50.889Z,39.40
2017-08-04T19:13:19.024Z,40.73
2017-08-04T19:15:47.108Z,40.00
2017-08-04T19:18:15.162Z,40.20
2017-08-04T19:20:43.383Z,38.23
2017-08-04T19:23:11.449Z,42.13
2017-08-04T19:25:39.662Z,41.77
2017-08-04T19:28:07.997Z,40.07
2017-08-04T19:30:36.041Z,40.63
2017-08-04T19:33:04.063Z,41.37
2017-08-04T19:35:32.210Z,39.63
2017-08-04T19:38:00.273Z,40.07
2017-08-04T19:40:28.308Z,40.73
2017-08-04T19:42:56.512Z,44.40
2017-08-04T19:45:24.541Z,40.50
2017-08-04T19:47:52.582Z,41.17
2017-08-04T19:50:20.798Z,42.20
2017-08-04T19:52:48.878Z,42.00
2017-08-04T19:55:16.898Z,40.47
2017-08-04T19:57:45.044Z,43.20
2017-08-04T20:00:13.089Z,44.67
2017-08-04T20:02:41.171Z,44.33
2017-08-04T20:05:09.372Z,41.10
2017-08-04T20:07:37.419Z,43.60
2017-08-04T20:10:05.450Z,43.40
2017-08-04T20:12:33.638Z,39.57
2017-08-04T20:15:01.701Z,40.50
2017-08-04T20:17:29.738Z,39.90
2017-08-04T20:19:57.902Z,43.07
2017-08-04T20:22:25.994Z,40.70
2017-08-04T20:24:54.047Z,42.33
2017-08-04T20:27:22.224Z,40.60
2017-08-04T20:29:50.221Z,41.67
2017-08-04T20:32:18.218Z,40.27
2017-08-04T20:34:46.386Z,40.50
2017-08-04T20:37:14.456Z,40.83
2017-08-04T20:39:42.568Z,40.50
2017-08-04T20:42:10.737Z,37.30
2017-08-04T20:44:38.799Z,38.77
2017-08-04T20:47:06.911Z,36.57
2017-08-04T20:49:35.108Z,39.40
2017-08-04T20:52:03.292Z,38.60
2017-08-04T20:54:31.360Z,39.60
2017-08-04T20:56:59.642Z,37.73
2017-08-04T20:59:27.854Z,39.33
2017-08-04T21:02:02.677Z,41.63
2017-08-04T21:04:31.242Z,40.70
2017-08-04T21:06:59.327Z,42.03
2017-08-04T21:09:27.513Z,41.57
2017-08-04T21:11:55.600Z,45.20
2017-08-04T21:14:23.665Z,43.27
2017-08-04T21:16:51.875Z,43.00
2017-08-04T21:19:19.956Z,42.97
2017-08-04T21:21:47.989Z,42.37
2017-08-04T21:24:16.157Z,41.33
2017-08-04T21:26:44.231Z,40.80
2017-08-04T21:29:12.268Z,40.07
2017-08-04T21:31:40.502Z,41.20
2017-08-04T21:34:08.550Z,41.27
2017-08-04T21:36:36.640Z,39.03
2017-08-04T21:39:05.004Z,38.77
2017-08-04T21:41:33.097Z,36.93
2017-08-04T21:44:01.194Z,35.33
2017-08-04T21:46:29.388Z,36.00
2017-08-04T21:48:57.453Z,36.37
2017-08-04T21:51:25.524Z,32.57
2017-08-04T21:53:53.819Z,32.50
2017-08-04T21:56:21.830Z,30.93
2017-08-04T21:58:49.894Z,30.90
2017-08-04T22:01:18.102Z,30.90
2017-08-04T22:03:46.166Z,30.03
2017-08-04T22:06:14.229Z,28.97
2017-08-04T22:08:42.367Z,29.00
2017-08-04T22:11:10.421Z,29.13
2017-08-04T22:13:38.494Z,30.30
2017-08-04T22:16:06.676Z,28.77
2017-08-04T22:18:34.736Z,29.70
2017-08-04T22:21:02.853Z,30.70
2017-08-04T22:23:31.043Z,28.93
2017-08-04T22:25:59.129Z,29.63
2017-08-04T22:28:27.244Z,29.40
2017-08-04T22:30:55.436Z,29.37
2017-08-04T22:33:23.530Z,25.93
2017-08-04T22:35:51.549Z,26.80
2017-08-04T22:38:19.761Z,26.30
2017-08-04T22:40:47.829Z,29.50
2017-08-04T22:43:15.861Z,28.27
2017-08-04T22:45:44.055Z,30.47
2017-08-04T22:48:12.141Z,29.13
2017-08-04T22:50:40.233Z,28.20
2017-08-04T22:53:08.479Z,30.47
2017-08-04T22:55:36.701Z,29.97
2017-08-04T22:58:04.740Z,29.90
2017-08-04T23:00:32.890Z,29.27
2017-08-04T23:03:00.937Z,30.47
2017-08-04T23:05:29.034Z,29.47
2017-08-04T23:07:57.174Z,30.90
2017-08-04T23:10:25.251Z,29.93
2017-08-04T23:12:53.319Z,29.80
2017-08-04T23:15:21.472Z,29.40
2017-08-04T23:17:49.548Z,28.40
2017-08-04T23:20:17.662Z,28.47
2017-08-04T23:22:45.860Z,24.47
2017-08-04T23:25:13.932Z,22.03
2017-08-04T23:27:42.010Z,19.63
2017-08-04T23:30:10.200Z,21.80
2017-08-04T23:32:38.263Z,21.00
2017-08-04T23:35:06.362Z,21.30
2017-08-04T23:37:34.525Z,20.30
2017-08-04T23:40:02.592Z,19.50
2017-08-04T23:42:30.692Z,19.70
2017-08-04T23:44:58.854Z,17.43
2017-08-04T23:47:26.912Z,17.27
2017-08-04T23:49:55.017Z,16.93
2017-08-04T23:52:23.253Z,16.63
2017-08-04T23:54:51.296Z,17.80
2017-08-04T23:57:19.516Z,17.67
2017-08-04T23:59:47.729Z,17.50
